Time;durP1;ratioP1;P1;durP2;ratioP2;P2;SDS_P1;SDS_P2;PMS_P1;PMS_P2;Temp;Humidity;BMP_temperature;BMP_pressure;BME280_temperature;BME280_humidity;BME280_pressure;Samples;Min_cycle;Max_cycle;Signal;HPM_P1;HPM_P2
2023/10/19 00:03:55;;;;;;;14.27;8.93;;;6.70;1.00;;;;;;10232198;28;20196;-75
2023/10/19 00:09:17;;;;;;;14.87;8.73;;;6.60;99.90;;;;;;10314309;28;20214;-76
2023/10/19 00:14:38;;;;;;;12.00;8.30;;;6.70;1.00;;;;;;10320166;28;20302;-76
2023/10/19 00:25:44;;;;;;;12.10;5.80;;;6.70;1.00;;;;;;10238606;29;20220;-76
2023/10/19 00:31:08;;;;;;;10.03;5.83;;;6.70;1.00;;;;;;10225104;29;20246;-76
2023/10/19 00:36:31;;;;;;;8.43;5.07;;;6.80;1.00;;;;;;10224689;29;20240;-76
2023/10/19 00:41:58;;;;;;;9.70;5.97;;;6.70;1.00;;;;;;10238025;29;20209;-75
2023/10/19 00:47:19;;;;;;;10.33;5.67;;;6.60;1.00;;;;;;10237987;29;20205;-75
2023/10/19 00:52:49;;;;;;;8.20;5.07;;;6.60;99.90;;;;;;10237715;29;20296;-75
2023/10/19 00:58:10;;;;;;;9.50;5.73;;;6.60;99.90;;;;;;10237818;29;20199;-75
2023/10/19 01:03:35;;;;;;;10.13;5.50;;;6.70;1.00;;;;;;10316955;28;20208;-76
2023/10/19 01:08:56;;;;;;;9.57;5.67;;;6.70;99.90;;;;;;10319400;28;20202;-75
2023/10/19 01:14:20;;;;;;;8.70;5.37;;;6.70;99.90;;;;;;10319368;28;20299;-75
2023/10/19 01:19:41;;;;;;;7.17;4.80;;;6.60;1.00;;;;;;10318332;28;20204;-76
2023/10/19 01:25:10;;;;;;;5.93;4.20;;;6.60;1.00;;;;;;10291430;28;20375;-75
2023/10/19 01:30:33;;;;;;;7.73;4.23;;;6.50;1.00;;;;;;10317328;28;20196;-75
2023/10/19 01:36:24;;;;;;;7.07;3.90;;;6.50;1.00;;;;;;10318827;28;20225;-75
2023/10/19 01:41:46;;;;;;;7.77;3.50;;;6.50;99.90;;;;;;10318511;28;20196;-75
2023/10/19 01:47:07;;;;;;;7.07;4.63;;;6.40;1.00;;;;;;10291086;28;20225;-75
2023/10/19 01:52:41;;;;;;;6.03;4.03;;;6.50;99.90;;;;;;10318205;28;20242;-76
2023/10/19 01:58:03;;;;;;;5.63;3.50;;;6.50;92.80;;;;;;10318777;28;20362;-76
2023/10/19 02:03:24;;;;;;;6.83;3.67;;;6.50;99.90;;;;;;10304189;28;20483;-75
2023/10/19 02:08:51;;;;;;;8.33;3.67;;;6.60;1.00;;;;;;10317451;28;20260;-75
2023/10/19 02:20:31;;;;;;;4.47;3.10;;;6.70;99.90;;;;;;10316331;28;20457;-76
2023/10/19 02:25:58;;;;;;;6.53;3.90;;;6.60;99.90;;;;;;10287425;28;20192;-75
2023/10/19 02:31:24;;;;;;;4.67;3.57;;;6.60;99.90;;;;;;10277402;28;20200;-76
2023/10/19 02:36:47;;;;;;;6.50;3.90;;;6.50;1.00;;;;;;10316607;28;20278;-75
2023/10/19 02:42:09;;;;;;;6.60;4.53;;;6.50;99.90;;;;;;10315931;28;20489;-76
2023/10/19 02:47:30;;;;;;;9.53;5.60;;;6.40;92.50;;;;;;10276683;28;20481;-76
2023/10/19 02:52:56;;;;;;;8.03;5.10;;;6.40;1.00;;;;;;10275511;29;20234;-76
2023/10/19 02:58:17;;;;;;;10.70;5.77;;;6.40;98.50;;;;;;10283947;28;20202;-76
2023/10/19 03:03:38;;;;;;;8.57;4.80;;;6.40;99.90;;;;;;10315489;28;20199;-75
2023/10/19 03:09:22;;;;;;;7.17;4.27;;;6.40;99.90;;;;;;10315058;28;20183;-76
2023/10/19 03:14:43;;;;;;;8.70;4.67;;;6.40;1.00;;;;;;10315483;28;20227;-76
2023/10/19 03:20:10;;;;;;;8.53;4.60;;;6.40;1.00;;;;;;10315292;28;20282;-75
2023/10/19 03:31:17;;;;;;;9.03;4.53;;;6.30;1.00;;;;;;10315024;28;20271;-76
2023/10/19 03:36:40;;;;;;;9.33;5.63;;;6.30;1.00;;;;;;10313995;28;20259;-76
2023/10/19 03:42:01;;;;;;;10.53;5.40;;;6.40;1.00;;;;;;10314735;28;20204;-75
2023/10/19 03:47:26;;;;;;;11.43;5.90;;;6.40;1.00;;;;;;10313284;28;20489;-76
2023/10/19 03:52:48;;;;;;;16.97;7.73;;;6.50;99.10;;;;;;10313740;28;20275;-76
2023/10/19 03:58:09;;;;;;;13.57;6.53;;;6.50;99.90;;;;;;10314178;28;20265;-77
2023/10/19 04:03:31;;;;;;;9.20;4.37;;;6.60;99.90;;;;;;10313724;28;20482;-77
2023/10/19 04:08:52;;;;;;;8.47;4.13;;;6.60;99.90;;;;;;10314225;28;20519;-76
2023/10/19 04:14:15;;;;;;;10.30;3.97;;;6.50;1.00;;;;;;10313773;28;20517;-75
2023/10/19 04:19:36;;;;;;;5.57;3.33;;;6.50;1.00;;;;;;10313500;28;20229;-75
2023/10/19 04:24:58;;;;;;;9.40;4.57;;;6.50;1.00;;;;;;10286381;28;20566;-75
2023/10/19 04:30:22;;;;;;;7.73;4.17;;;6.50;1.00;;;;;;10311494;28;20192;-74
2023/10/19 04:35:45;;;;;;;5.60;4.30;;;6.50;3.80;;;;;;10313828;28;20222;-75
2023/10/19 04:41:08;;;;;;;7.20;3.33;;;6.50;6.90;;;;;;10311969;28;20207;-75
2023/10/19 04:46:29;;;;;;;6.07;4.47;;;6.40;1.00;;;;;;10313630;28;20193;-75
2023/10/19 04:51:50;;;;;;;7.23;4.83;;;6.50;1.00;;;;;;10313511;28;20271;-75
2023/10/19 04:57:12;;;;;;;7.10;4.87;;;6.40;48.80;;;;;;10313440;28;20215;-75
2023/10/19 05:02:33;;;;;;;9.50;6.03;;;6.30;2.90;;;;;;10320759;28;20201;-75
2023/10/19 05:07:54;;;;;;;16.07;9.63;;;6.10;1.00;;;;;;10320611;28;20413;-76
2023/10/19 05:13:15;;;;;;;25.03;12.43;;;6.20;99.90;;;;;;10319591;28;20238;-75
2023/10/19 05:18:36;;;;;;;28.77;14.07;;;6.20;5.40;;;;;;10319331;28;20269;-75
2023/10/19 05:24:00;;;;;;;22.03;11.37;;;6.20;1.00;;;;;;10316768;28;20241;-75
2023/10/19 05:29:23;;;;;;;17.23;9.47;;;6.20;1.00;;;;;;10319752;28;20246;-75
2023/10/19 05:34:44;;;;;;;13.00;8.17;;;6.30;99.90;;;;;;10318069;28;20223;-75
2023/10/19 05:40:12;;;;;;;13.77;7.80;;;6.30;1.00;;;;;;10319018;28;20238;-75
2023/10/19 05:45:36;;;;;;;13.00;7.83;;;6.30;1.00;;;;;;10277952;28;20209;-75
2023/10/19 05:50:58;;;;;;;39.40;21.00;;;6.30;1.00;;;;;;10283109;28;20203;-75
2023/10/19 05:56:21;;;;;;;62.60;30.40;;;6.40;99.90;;;;;;10318413;28;20529;-75
2023/10/19 06:01:46;;;;;;;71.37;35.73;;;6.40;99.90;;;;;;10317944;28;20234;-75
2023/10/19 06:07:07;;;;;;;54.07;26.43;;;6.50;1.00;;;;;;10318048;28;20524;-76
2023/10/19 06:12:29;;;;;;;33.40;14.97;;;6.60;1.00;;;;;;10316873;28;20241;-75
2023/10/19 06:17:50;;;;;;;21.70;12.70;;;6.60;1.00;;;;;;10286731;28;20580;-75
2023/10/19 06:23:12;;;;;;;21.80;12.70;;;6.70;1.00;;;;;;10293089;28;20209;-75
2023/10/19 06:28:38;;;;;;;26.20;13.97;;;6.70;1.00;;;;;;10288209;28;20275;-75
2023/10/19 06:34:00;;;;;;;21.10;13.30;;;6.80;1.00;;;;;;10300510;28;20529;-75
2023/10/19 06:39:21;;;;;;;14.47;9.10;;;6.90;1.00;;;;;;10310530;28;20302;-76
2023/10/19 06:44:43;;;;;;;15.77;9.80;;;6.90;1.00;;;;;;10311504;28;20509;-76
2023/10/19 06:50:07;;;;;;;12.27;6.83;;;6.90;1.00;;;;;;10310884;28;20226;-76
2023/10/19 06:55:29;;;;;;;11.10;6.57;;;7.00;99.90;;;;;;10309755;28;20250;-76
2023/10/19 07:00:56;;;;;;;14.80;6.60;;;7.00;1.00;;;;;;10311254;28;20202;-76
2023/10/19 07:06:17;;;;;;;15.20;7.40;;;7.00;1.00;;;;;;10311018;28;20203;-75
2023/10/19 07:11:39;;;;;;;9.63;6.50;;;7.00;1.00;;;;;;10311607;28;20424;-76
2023/10/19 07:17:00;;;;;;;8.90;6.37;;;7.00;1.00;;;;;;10315962;28;20229;-76
2023/10/19 07:22:22;;;;;;;8.07;6.20;;;6.90;1.00;;;;;;10309533;28;20249;-76
2023/10/19 07:27:44;;;;;;;10.43;7.03;;;6.90;1.00;;;;;;10309149;28;20194;-77
2023/10/19 07:33:05;;;;;;;14.50;6.77;;;6.90;1.00;;;;;;10307655;28;20642;-76
2023/10/19 07:38:28;;;;;;;12.87;8.50;;;6.70;99.90;;;;;;10306743;28;20616;-77
2023/10/19 07:43:49;;;;;;;13.20;8.83;;;6.80;1.00;;;;;;10309343;28;20217;-79
2023/10/19 07:49:14;;;;;;;20.20;11.83;;;7.00;1.00;;;;;;10294694;28;20286;-75
2023/10/19 07:54:36;;;;;;;11.97;8.17;;;7.00;99.90;;;;;;10306932;28;20619;-77
2023/10/19 07:59:58;;;;;;;10.30;8.20;;;7.00;99.90;;;;;;10308371;28;20200;-75
2023/10/19 08:05:20;;;;;;;11.33;8.23;;;6.90;99.90;;;;;;10305840;28;20444;-78
2023/10/19 08:10:41;;;;;;;9.53;7.63;;;7.00;99.90;;;;;;10306008;28;20188;-80
2023/10/19 08:16:03;;;;;;;12.07;8.20;;;6.90;43.50;;;;;;10282885;28;20254;-75
2023/10/19 08:21:25;;;;;;;13.57;9.67;;;7.00;99.90;;;;;;10289342;28;20220;-77
2023/10/19 08:26:46;;;;;;;13.03;8.73;;;7.00;1.00;;;;;;10309070;28;20197;-74
2023/10/19 08:32:08;;;;;;;16.17;9.50;;;7.00;99.90;;;;;;10308966;28;20199;-75
2023/10/19 08:37:29;;;;;;;12.33;7.80;;;7.10;1.00;;;;;;10315757;28;20466;-76
2023/10/19 08:42:51;;;;;;;12.93;7.40;;;7.20;99.90;;;;;;10315983;28;20238;-76
2023/10/19 08:48:14;;;;;;;8.67;6.23;;;7.10;1.00;;;;;;10277150;28;20201;-76
2023/10/19 08:53:40;;;;;;;9.73;6.70;;;7.30;1.00;;;;;;10301114;28;20250;-76
2023/10/19 08:59:01;;;;;;;10.37;7.30;;;7.40;99.90;;;;;;10314920;28;20196;-80
2023/10/19 09:04:23;;;;;;;7.17;5.77;;;7.40;92.40;;;;;;10315256;28;20224;-76
2023/10/19 09:09:47;;;;;;;9.67;6.13;;;7.50;1.00;;;;;;10316003;28;20212;-76
2023/10/19 09:15:32;;;;;;;9.30;5.83;;;7.50;1.00;;;;;;10304731;28;20568;-76
2023/10/19 09:21:21;;;;;;;13.03;5.73;;;7.50;99.90;;;;;;10310541;28;20207;-77
2023/10/19 09:26:42;;;;;;;8.77;5.27;;;7.50;8.40;;;;;;10293741;28;20198;-78
2023/10/19 09:32:05;;;;;;;8.80;5.70;;;7.60;1.00;;;;;;10314193;28;20474;-81
2023/10/19 09:37:27;;;;;;;8.47;5.53;;;7.60;99.90;;;;;;10285594;28;20449;-78
2023/10/19 09:42:53;;;;;;;9.47;6.73;;;7.80;1.00;;;;;;10313019;28;20278;-78
2023/10/19 09:48:16;;;;;;;10.20;6.60;;;7.80;1.00;;;;;;10310637;28;20204;-78
2023/10/19 09:53:39;;;;;;;7.23;5.57;;;7.70;99.90;;;;;;10311198;28;20226;-82
2023/10/19 09:59:07;;;;;;;21.63;11.87;;;7.60;1.00;;;;;;10310586;28;20204;-77
2023/10/19 10:04:32;;;;;;;10.20;7.57;;;7.60;1.00;;;;;;10311743;28;20199;-76
2023/10/19 10:09:55;;;;;;;12.50;9.27;;;7.60;1.00;;;;;;10271586;28;20226;-87
2023/10/19 10:15:18;;;;;;;14.27;9.23;;;7.70;1.00;;;;;;10299586;28;20565;-81
2023/10/19 10:20:40;;;;;;;17.87;11.10;;;7.80;1.00;;;;;;10296705;28;20297;-79
2023/10/19 10:26:04;;;;;;;10.43;7.57;;;7.80;1.00;;;;;;10296033;28;20191;-76
2023/10/19 10:31:25;;;;;;;6.70;5.07;;;8.00;1.00;;;;;;10312623;28;20287;-76
2023/10/19 10:37:05;;;;;;;7.60;5.10;;;8.00;1.00;;;;;;10274551;28;20466;-79
2023/10/19 10:42:27;;;;;;;9.83;6.70;;;8.00;1.00;;;;;;10308249;28;20196;-78
2023/10/19 10:47:49;;;;;;;9.47;6.13;;;8.10;1.00;;;;;;10310130;28;20298;-80
2023/10/19 10:53:11;;;;;;;7.57;5.33;;;8.10;99.90;;;;;;10310566;28;20277;-80
2023/10/19 10:58:33;;;;;;;6.33;4.60;;;8.10;99.90;;;;;;10310271;28;20204;-80
2023/10/19 11:04:06;;;;;;;7.80;5.30;;;8.10;1.00;;;;;;10311146;28;20294;-80
2023/10/19 11:09:28;;;;;;;4.70;3.87;;;8.00;3.00;;;;;;10311336;28;20198;-81
2023/10/19 11:14:54;;;;;;;3.47;2.93;;;8.10;1.00;;;;;;10308006;28;20224;-93
2023/10/19 11:20:24;;;;;;;6.50;3.67;;;8.10;1.00;;;;;;10317987;28;20211;-82
2023/10/19 11:25:46;;;;;;;9.67;3.13;;;8.30;99.90;;;;;;10310059;28;20446;-84
2023/10/19 11:31:18;;;;;;;7.17;3.93;;;8.50;99.90;;;;;;10311085;28;20223;-82
2023/10/19 11:36:39;;;;;;;8.43;4.47;;;8.60;99.90;;;;;;10289084;28;20256;-82
2023/10/19 11:42:01;;;;;;;4.80;3.63;;;8.60;1.00;;;;;;10308357;28;20201;-89
2023/10/19 11:47:21;;;;;;;7.53;4.77;;;8.60;1.00;;;;;;10307292;28;20473;-78
2023/10/19 11:52:43;;;;;;;11.13;4.97;;;8.50;1.00;;;;;;10308938;28;20438;-79
2023/10/19 11:58:05;;;;;;;7.53;4.83;;;8.50;1.00;;;;;;10292490;28;20515;-80
2023/10/19 12:03:27;;;;;;;4.77;3.47;;;8.50;1.00;;;;;;10299050;28;20251;-80
2023/10/19 12:08:48;;;;;;;5.90;3.50;;;8.50;1.00;;;;;;10298977;28;20196;-79
2023/10/19 12:14:14;;;;;;;5.77;4.00;;;8.50;1.00;;;;;;10285931;28;20518;-77
2023/10/19 12:19:35;;;;;;;4.80;3.43;;;8.40;1.00;;;;;;10304866;28;20218;-80
2023/10/19 12:24:58;;;;;;;4.80;2.90;;;8.50;1.00;;;;;;10291058;28;20206;-79
2023/10/19 12:30:21;;;;;;;8.27;4.50;;;8.60;1.00;;;;;;10294881;28;20217;-84
2023/10/19 12:35:53;;;;;;;7.20;3.33;;;8.70;1.00;;;;;;10292071;28;20292;-79
2023/10/19 12:41:14;;;;;;;9.20;4.00;;;8.60;99.90;;;;;;10292227;28;20546;-79
2023/10/19 12:46:36;;;;;;;5.87;3.57;;;8.60;1.00;;;;;;10295309;28;20197;-83
2023/10/19 12:51:58;;;;;;;10.87;4.97;;;8.50;1.00;;;;;;10306873;28;20189;-81
2023/10/19 12:57:20;;;;;;;8.87;5.23;;;8.50;1.00;;;;;;10303696;28;20282;-79
2023/10/19 13:02:41;;;;;;;10.97;6.10;;;8.40;1.00;;;;;;10295267;28;20432;-82
2023/10/19 13:08:05;;;;;;;10.73;6.23;;;8.30;1.00;;;;;;10297349;28;20281;-77
2023/10/19 13:13:27;;;;;;;17.63;5.27;;;8.30;1.00;;;;;;10273814;28;20251;-78
2023/10/19 13:18:49;;;;;;;5.73;3.80;;;8.30;1.00;;;;;;10305437;28;20338;-78
2023/10/19 13:24:10;;;;;;;11.17;5.30;;;8.20;1.00;;;;;;10299959;28;20234;-79
2023/10/19 13:29:37;;;;;;;7.90;4.13;;;8.10;1.00;;;;;;10296498;28;20191;-78
2023/10/19 13:34:58;;;;;;;10.93;5.53;;;8.00;14.20;;;;;;10301293;28;20231;-77
2023/10/19 13:40:19;;;;;;;14.93;5.27;;;7.90;95.50;;;;;;10284195;28;20590;-77
2023/10/19 13:45:44;;;;;;;12.20;5.90;;;7.80;99.90;;;;;;10287854;28;20197;-78
2023/10/19 13:51:15;;;;;;;13.50;6.20;;;7.60;99.90;;;;;;10304181;28;20197;-76
2023/10/19 13:56:36;;;;;;;12.63;5.63;;;7.60;99.90;;;;;;10291852;28;20230;-77
2023/10/19 14:01:59;;;;;;;12.70;6.53;;;7.50;99.90;;;;;;10312084;28;20213;-76
2023/10/19 14:07:20;;;;;;;12.17;5.50;;;7.50;99.90;;;;;;10311345;28;20260;-76
2023/10/19 14:12:42;;;;;;;11.83;6.17;;;7.40;1.00;;;;;;10301409;28;20213;-78
2023/10/19 14:18:05;;;;;;;19.77;5.00;;;7.40;1.00;;;;;;10299059;28;20519;-80
2023/10/19 14:23:27;;;;;;;12.70;4.90;;;7.30;99.90;;;;;;10304940;28;20199;-80
2023/10/19 14:28:48;;;;;;;10.13;5.10;;;7.20;1.00;;;;;;10296430;28;20201;-79
2023/10/19 14:34:09;;;;;;;10.33;6.50;;;7.20;1.00;;;;;;10309491;28;20223;-77
2023/10/19 14:39:30;;;;;;;11.03;5.30;;;7.20;1.00;;;;;;10295530;28;20316;-79
2023/10/19 14:44:52;;;;;;;11.67;6.60;;;7.20;1.00;;;;;;10295157;28;20245;-79
2023/10/19 14:50:14;;;;;;;8.77;5.07;;;7.10;1.00;;;;;;10273730;28;20257;-86
2023/10/19 14:55:36;;;;;;;11.30;5.33;;;7.10;1.00;;;;;;10302401;28;20308;-80
2023/10/19 15:00:58;;;;;;;12.27;5.20;;;7.10;1.00;;;;;;10299463;28;20569;-80
2023/10/19 15:06:20;;;;;;;10.67;6.60;;;7.00;1.00;;;;;;10298362;28;20446;-79
2023/10/19 15:11:43;;;;;;;11.60;7.97;;;6.90;99.90;;;;;;10299376;28;20248;-79
2023/10/19 15:17:04;;;;;;;13.10;7.00;;;6.90;99.90;;;;;;10262996;28;20303;-78
2023/10/19 15:22:25;;;;;;;11.20;6.60;;;6.90;99.90;;;;;;10304383;28;20207;-78
2023/10/19 15:27:50;;;;;;;17.30;9.53;;;6.90;99.90;;;;;;10315896;28;20194;-79
2023/10/19 15:33:12;;;;;;;14.23;7.33;;;6.80;1.00;;;;;;10314213;28;20350;-79
2023/10/19 15:38:33;;;;;;;11.47;6.83;;;6.80;1.00;;;;;;10312691;28;20243;-79
2023/10/19 15:43:55;;;;;;;8.33;5.07;;;6.80;1.00;;;;;;10313790;28;20229;-79
2023/10/19 15:49:16;;;;;;;8.33;4.60;;;6.70;1.00;;;;;;10313904;28;20289;-80
2023/10/19 15:54:37;;;;;;;14.70;6.20;;;6.60;1.00;;;;;;10313522;28;20308;-79
2023/10/19 15:59:59;;;;;;;20.43;8.37;;;6.60;1.00;;;;;;10313739;28;20262;-79
2023/10/19 16:05:20;;;;;;;15.30;7.17;;;6.60;1.00;;;;;;10313996;28;20191;-79
2023/10/19 16:10:41;;;;;;;12.47;6.30;;;6.50;1.00;;;;;;10314387;28;20248;-79
2023/10/19 16:16:03;;;;;;;17.70;5.83;;;6.60;33.60;;;;;;10310814;28;20274;-79
2023/10/19 16:21:25;;;;;;;9.23;5.20;;;6.50;1.00;;;;;;10307916;28;20278;-78
2023/10/19 16:26:47;;;;;;;11.13;5.67;;;6.60;1.00;;;;;;10313682;28;20194;-79
2023/10/19 16:32:09;;;;;;;11.87;5.40;;;6.60;1.00;;;;;;10312424;28;20195;-79
2023/10/19 16:37:30;;;;;;;10.70;4.90;;;6.60;1.00;;;;;;10312198;28;20241;-79
2023/10/19 16:42:53;;;;;;;9.13;5.47;;;6.50;1.00;;;;;;10312948;28;20201;-79
2023/10/19 16:48:14;;;;;;;13.33;7.40;;;6.50;1.00;;;;;;10313206;28;20222;-79
2023/10/19 16:53:35;;;;;;;14.50;7.13;;;6.50;1.00;;;;;;10314199;28;20213;-79
2023/10/19 16:58:56;;;;;;;11.00;6.50;;;6.50;1.00;;;;;;10292767;28;20225;-79
2023/10/19 17:04:18;;;;;;;11.43;5.53;;;6.50;1.00;;;;;;10321314;28;20196;-80
2023/10/19 17:09:40;;;;;;;13.03;6.30;;;6.40;1.00;;;;;;10320688;28;20182;-79
2023/10/19 17:15:02;;;;;;;16.53;8.67;;;6.40;1.00;;;;;;10302268;28;20237;-79
2023/10/19 17:20:26;;;;;;;11.30;6.33;;;6.40;1.00;;;;;;10305131;28;20207;-78
2023/10/19 17:25:48;;;;;;;8.50;5.20;;;6.50;1.00;;;;;;10319152;28;20517;-79
2023/10/19 17:31:09;;;;;;;9.87;4.80;;;6.40;1.00;;;;;;10318622;28;20393;-79
2023/10/19 17:36:30;;;;;;;8.87;5.20;;;6.30;1.00;;;;;;10318693;28;20262;-80
2023/10/19 17:41:51;;;;;;;8.17;4.77;;;6.30;1.00;;;;;;10319753;28;20217;-79
2023/10/19 17:47:14;;;;;;;11.00;5.63;;;6.40;1.00;;;;;;10319386;28;20230;-79
2023/10/19 17:52:35;;;;;;;16.43;5.23;;;6.30;1.00;;;;;;10318228;28;20202;-79
2023/10/19 17:57:58;;;;;;;13.40;6.47;;;6.20;1.00;;;;;;10317443;28;20225;-79
2023/10/19 18:03:19;;;;;;;23.63;11.57;;;6.20;1.00;;;;;;10317862;28;20270;-79
2023/10/19 18:08:42;;;;;;;15.90;9.07;;;6.20;1.00;;;;;;10289401;28;20202;-79
2023/10/19 18:14:03;;;;;;;16.13;7.57;;;6.20;1.00;;;;;;10318234;28;20301;-79
2023/10/19 18:19:24;;;;;;;15.00;6.50;;;6.20;1.00;;;;;;10299594;28;20254;-78
2023/10/19 18:24:45;;;;;;;13.03;7.00;;;6.10;1.00;;;;;;10303453;28;20201;-79
2023/10/19 18:30:10;;;;;;;11.30;5.07;;;6.10;1.00;;;;;;10315360;28;20202;-79
2023/10/19 18:35:31;;;;;;;9.97;5.37;;;6.20;38.10;;;;;;10316403;28;20307;-79
2023/10/19 18:40:59;;;;;;;11.17;7.53;;;5.90;99.90;;;;;;10301839;28;20236;-79
2023/10/19 18:46:21;;;;;;;16.67;7.97;;;5.80;1.00;;;;;;10303591;28;20494;-79
2023/10/19 18:51:42;;;;;;;17.10;7.30;;;5.80;99.00;;;;;;10316137;28;20220;-79
2023/10/19 18:57:05;;;;;;;12.87;5.97;;;5.70;1.00;;;;;;10315113;28;20242;-79
2023/10/19 19:02:26;;;;;;;15.57;7.00;;;5.70;99.90;;;;;;10314731;28;20344;-79
2023/10/19 19:07:47;;;;;;;14.23;7.93;;;5.60;99.90;;;;;;10314545;28;20197;-79
2023/10/19 19:13:10;;;;;;;15.57;8.03;;;5.50;99.90;;;;;;10301423;28;20417;-79
2023/10/19 19:18:31;;;;;;;14.00;7.27;;;5.40;1.00;;;;;;10290358;28;20226;-79
2023/10/19 19:23:52;;;;;;;15.23;6.27;;;5.40;1.00;;;;;;10286989;28;20425;-78
2023/10/19 19:29:15;;;;;;;14.23;6.83;;;5.40;1.00;;;;;;10266731;28;20206;-78
2023/10/19 19:34:36;;;;;;;19.70;9.40;;;5.40;1.00;;;;;;10314185;28;20229;-79
2023/10/19 19:39:58;;;;;;;19.10;8.07;;;5.30;99.90;;;;;;10313396;28;20229;-77
2023/10/19 19:45:22;;;;;;;56.23;15.23;;;5.30;1.00;;;;;;10313999;28;20197;-79
2023/10/19 19:50:43;;;;;;;64.23;18.13;;;5.30;1.00;;;;;;10278111;28;20193;-78
2023/10/19 19:56:05;;;;;;;47.50;14.33;;;5.20;1.00;;;;;;10287828;28;20285;-79
2023/10/19 20:01:26;;;;;;;31.07;8.37;;;5.10;1.00;;;;;;10314561;28;20197;-78
2023/10/19 20:06:47;;;;;;;52.80;17.83;;;5.10;1.00;;;;;;10314150;28;20516;-78
2023/10/19 20:12:10;;;;;;;18.53;8.00;;;5.00;99.90;;;;;;10314075;28;20187;-78
2023/10/19 20:17:31;;;;;;;39.13;13.93;;;5.00;1.00;;;;;;10290827;28;20232;-79
2023/10/19 20:22:54;;;;;;;27.27;8.80;;;4.90;1.00;;;;;;10279093;28;20288;-79
2023/10/19 20:28:17;;;;;;;20.63;8.50;;;4.90;1.00;;;;;;10315343;28;20193;-79
2023/10/19 20:33:38;;;;;;;18.37;7.87;;;4.80;1.00;;;;;;10320812;28;20205;-79
2023/10/19 20:39:02;;;;;;;24.33;9.10;;;4.70;1.00;;;;;;10320943;28;20243;-79
2023/10/19 20:44:25;;;;;;;13.83;7.53;;;4.70;99.90;;;;;;10320049;28;20199;-79
2023/10/19 20:49:46;;;;;;;10.30;5.03;;;4.70;1.00;;;;;;10307211;28;20349;-79
2023/10/19 20:55:09;;;;;;;9.97;6.10;;;4.70;1.00;;;;;;10319938;28;20271;-78
2023/10/19 21:00:30;;;;;;;11.00;5.80;;;4.40;1.00;;;;;;10320092;28;20205;-77
2023/10/19 21:05:52;;;;;;;8.63;5.17;;;4.40;99.90;;;;;;10313246;28;20265;-78
2023/10/19 21:11:15;;;;;;;9.33;4.70;;;4.40;99.90;;;;;;10319647;28;20200;-78
2023/10/19 21:16:37;;;;;;;9.53;5.43;;;4.30;1.00;;;;;;10314801;28;20249;-78
2023/10/19 21:21:59;;;;;;;8.37;5.17;;;4.30;1.00;;;;;;10305219;28;20264;-78
2023/10/19 21:27:20;;;;;;;5.57;3.97;;;4.30;99.90;;;;;;10291871;28;20221;-77
2023/10/19 21:32:46;;;;;;;8.07;4.27;;;4.30;1.00;;;;;;10318992;28;20472;-78
2023/10/19 21:38:10;;;;;;;6.60;4.47;;;4.30;1.00;;;;;;10318380;28;20576;-78
2023/10/19 21:43:31;;;;;;;7.23;4.10;;;4.30;99.90;;;;;;10318223;28;20196;-78
2023/10/19 21:48:52;;;;;;;8.33;4.67;;;4.40;1.00;;;;;;10319376;28;20192;-78
2023/10/19 21:54:13;;;;;;;7.37;4.33;;;4.30;31.50;;;;;;10317855;28;20218;-78
2023/10/19 21:59:35;;;;;;;5.60;3.73;;;4.30;99.90;;;;;;10304346;28;20507;-78
2023/10/19 22:04:56;;;;;;;4.73;3.47;;;4.30;99.90;;;;;;10317898;28;20193;-77
2023/10/19 22:10:23;;;;;;;7.53;4.27;;;4.30;37.80;;;;;;10318470;28;20191;-78
2023/10/19 22:15:44;;;;;;;6.53;4.00;;;4.40;99.90;;;;;;10315337;28;20518;-78
2023/10/19 22:21:05;;;;;;;5.63;3.87;;;4.30;99.90;;;;;;10317117;28;20264;-78
2023/10/19 22:26:26;;;;;;;3.93;3.20;;;4.40;99.90;;;;;;10317215;28;20197;-78
2023/10/19 22:31:51;;;;;;;6.83;4.07;;;4.50;1.00;;;;;;10316518;28;20507;-78
2023/10/19 22:37:12;;;;;;;7.23;3.97;;;4.50;1.00;;;;;;10316266;28;20237;-78
2023/10/19 22:42:58;;;;;;;6.50;4.13;;;4.50;1.00;;;;;;10317261;28;20213;-78
2023/10/19 22:48:19;;;;;;;5.63;3.80;;;4.50;1.00;;;;;;10316520;28;20187;-78
2023/10/19 22:53:42;;;;;;;7.30;4.97;;;4.60;99.90;;;;;;10316875;28;20244;-78
2023/10/19 22:59:03;;;;;;;8.03;4.70;;;4.60;1.00;;;;;;10301836;28;20209;-78
2023/10/19 23:04:26;;;;;;;5.73;3.93;;;4.60;99.90;;;;;;10315686;28;20235;-78
2023/10/19 23:09:47;;;;;;;7.97;4.27;;;4.60;1.00;;;;;;10301337;28;20456;-78
2023/10/19 23:15:15;;;;;;;7.87;4.50;;;4.60;1.00;;;;;;10314578;28;20295;-77
2023/10/19 23:20:39;;;;;;;5.37;3.73;;;4.60;99.90;;;;;;10314753;28;20251;-78
2023/10/19 23:26:02;;;;;;;6.40;4.10;;;4.70;99.90;;;;;;10314791;28;20198;-78
2023/10/19 23:31:23;;;;;;;6.83;4.10;;;4.70;99.90;;;;;;10314705;28;20369;-78
2023/10/19 23:36:44;;;;;;;6.13;4.00;;;4.60;1.00;;;;;;10293854;28;20232;-78
2023/10/19 23:42:05;;;;;;;7.87;3.70;;;4.70;1.00;;;;;;10301142;28;20280;-77
2023/10/19 23:47:27;;;;;;;8.87;4.20;;;4.70;99.90;;;;;;10300072;28;20232;-79
2023/10/19 23:52:48;;;;;;;6.07;4.17;;;4.70;1.00;;;;;;10314117;28;20201;-78
2023/10/19 23:58:10;;;;;;;7.57;4.07;;;4.50;1.00;;;;;;10313763;28;20316;-78
